sensor_id;sensor_type;location;lat;lon;timestamp;pressure;altitude;pressure_sealevel;temperature;humidity
12636;BME280;6383;50.830;7.210;2022-08-03T00:00:07;100833.84;;;22.67;62.98
12636;BME280;6383;50.830;7.210;2022-08-03T00:02:38;100821.50;;;22.65;63.91
12636;BME280;6383;50.830;7.210;2022-08-03T00:05:12;100822.69;;;22.64;63.78
12636;BME280;6383;50.830;7.210;2022-08-03T00:07:48;100824.22;;;22.61;63.31
12636;BME280;6383;50.830;7.210;2022-08-03T00:10:29;100827.75;;;22.58;63.43
12636;BME280;6383;50.830;7.210;2022-08-03T00:12:58;100820.94;;;22.52;63.04
12636;BME280;6383;50.830;7.210;2022-08-03T00:15:28;100826.06;;;22.50;63.25
12636;BME280;6383;50.830;7.210;2022-08-03T00:17:57;100822.44;;;22.46;63.56
12636;BME280;6383;50.830;7.210;2022-08-03T00:20:26;100817.19;;;22.41;63.73
12636;BME280;6383;50.830;7.210;2022-08-03T00:22:56;100815.19;;;22.38;63.11
12636;BME280;6383;50.830;7.210;2022-08-03T00:25:26;100814.06;;;23.02;61.83
12636;BME280;6383;50.830;7.210;2022-08-03T00:28:04;100815.63;;;23.33;60.51
12636;BME280;6383;50.830;7.210;2022-08-03T00:30:34;100814.38;;;22.94;61.76
12636;BME280;6383;50.830;7.210;2022-08-03T00:33:04;100815.28;;;22.75;62.10
12636;BME280;6383;50.830;7.210;2022-08-03T00:35:33;100811.97;;;22.62;62.99
12636;BME280;6383;50.830;7.210;2022-08-03T00:38:04;100806.34;;;22.55;62.92
12636;BME280;6383;50.830;7.210;2022-08-03T00:40:33;100800.25;;;22.46;62.79
12636;BME280;6383;50.830;7.210;2022-08-03T00:43:06;100801.34;;;22.41;62.75
12636;BME280;6383;50.830;7.210;2022-08-03T00:45:36;100798.94;;;22.36;63.05
12636;BME280;6383;50.830;7.210;2022-08-03T00:48:07;100804.41;;;22.33;63.94
12636;BME280;6383;50.830;7.210;2022-08-03T00:50:39;100803.56;;;22.29;63.74
12636;BME280;6383;50.830;7.210;2022-08-03T00:53:11;100800.31;;;22.23;63.43
12636;BME280;6383;50.830;7.210;2022-08-03T00:55:41;100807.41;;;22.21;63.58
12636;BME280;6383;50.830;7.210;2022-08-03T00:58:11;100802.59;;;22.17;64.14
12636;BME280;6383;50.830;7.210;2022-08-03T01:00:40;100810.50;;;22.15;64.44
12636;BME280;6383;50.830;7.210;2022-08-03T01:03:09;100801.31;;;22.11;64.17
12636;BME280;6383;50.830;7.210;2022-08-03T01:05:51;100808.44;;;22.09;64.51
12636;BME280;6383;50.830;7.210;2022-08-03T01:08:33;100804.34;;;22.03;63.88
12636;BME280;6383;50.830;7.210;2022-08-03T01:11:10;100801.59;;;22.03;63.89
12636;BME280;6383;50.830;7.210;2022-08-03T01:13:49;100807.06;;;21.99;64.36
12636;BME280;6383;50.830;7.210;2022-08-03T01:16:23;100803.03;;;21.97;63.92
12636;BME280;6383;50.830;7.210;2022-08-03T01:19:01;100799.06;;;21.94;64.47
12636;BME280;6383;50.830;7.210;2022-08-03T01:21:42;100801.38;;;21.92;64.18
12636;BME280;6383;50.830;7.210;2022-08-03T01:24:25;100799.34;;;21.89;64.22
12636;BME280;6383;50.830;7.210;2022-08-03T01:27:04;100806.44;;;21.87;64.48
12636;BME280;6383;50.830;7.210;2022-08-03T01:29:51;100798.38;;;21.78;64.54
12636;BME280;6383;50.830;7.210;2022-08-03T01:32:30;100805.16;;;21.80;64.67
12636;BME280;6383;50.830;7.210;2022-08-03T01:35:05;100799.56;;;21.77;65.13
12636;BME280;6383;50.830;7.210;2022-08-03T01:37:39;100796.34;;;21.75;64.83
12636;BME280;6383;50.830;7.210;2022-08-03T01:40:11;100802.25;;;21.73;65.41
12636;BME280;6383;50.830;7.210;2022-08-03T01:42:43;100798.25;;;21.71;65.36
12636;BME280;6383;50.830;7.210;2022-08-03T01:45:15;100803.00;;;21.70;64.67
12636;BME280;6383;50.830;7.210;2022-08-03T01:47:46;100800.94;;;21.67;65.69
12636;BME280;6383;50.830;7.210;2022-08-03T01:50:20;100790.28;;;21.66;65.86
12636;BME280;6383;50.830;7.210;2022-08-03T01:52:51;100795.81;;;21.66;65.86
12636;BME280;6383;50.830;7.210;2022-08-03T01:55:22;100791.44;;;21.65;65.85
12636;BME280;6383;50.830;7.210;2022-08-03T01:57:55;100797.72;;;21.62;65.49
12636;BME280;6383;50.830;7.210;2022-08-03T02:00:27;100791.38;;;21.61;65.56
12636;BME280;6383;50.830;7.210;2022-08-03T02:02:57;100792.91;;;21.59;65.61
12636;BME280;6383;50.830;7.210;2022-08-03T02:05:27;100792.47;;;21.57;65.46
12636;BME280;6383;50.830;7.210;2022-08-03T02:07:59;100802.75;;;21.56;65.93
12636;BME280;6383;50.830;7.210;2022-08-03T02:10:30;100794.81;;;21.55;65.80
12636;BME280;6383;50.830;7.210;2022-08-03T02:13:02;100799.09;;;21.52;65.60
12636;BME280;6383;50.830;7.210;2022-08-03T02:15:34;100791.56;;;21.49;65.85
12636;BME280;6383;50.830;7.210;2022-08-03T02:18:07;100795.84;;;21.46;66.05
12636;BME280;6383;50.830;7.210;2022-08-03T02:20:35;100793.44;;;21.45;65.77
12636;BME280;6383;50.830;7.210;2022-08-03T02:23:05;100790.25;;;21.43;65.90
12636;BME280;6383;50.830;7.210;2022-08-03T02:25:39;100792.59;;;21.41;65.81
12636;BME280;6383;50.830;7.210;2022-08-03T02:28:09;100790.13;;;21.17;65.33
12636;BME280;6383;50.830;7.210;2022-08-03T02:30:39;100790.78;;;21.29;65.71
12636;BME280;6383;50.830;7.210;2022-08-03T02:33:15;100800.25;;;21.28;66.46
12636;BME280;6383;50.830;7.210;2022-08-03T02:35:47;100796.69;;;21.28;66.37
12636;BME280;6383;50.830;7.210;2022-08-03T02:38:19;100788.75;;;21.26;66.55
12636;BME280;6383;50.830;7.210;2022-08-03T02:40:50;100793.47;;;21.26;66.69
12636;BME280;6383;50.830;7.210;2022-08-03T02:43:22;100791.09;;;21.24;66.09
12636;BME280;6383;50.830;7.210;2022-08-03T02:45:53;100777.22;;;21.24;66.40
12636;BME280;6383;50.830;7.210;2022-08-03T02:48:25;100782.34;;;21.22;66.47
12636;BME280;6383;50.830;7.210;2022-08-03T02:50:57;100781.94;;;21.20;66.51
12636;BME280;6383;50.830;7.210;2022-08-03T02:53:27;100777.56;;;21.19;66.39
12636;BME280;6383;50.830;7.210;2022-08-03T02:55:59;100772.72;;;21.16;66.46
12636;BME280;6383;50.830;7.210;2022-08-03T02:58:30;100778.25;;;21.16;67.34
12636;BME280;6383;50.830;7.210;2022-08-03T03:01:00;100773.09;;;21.15;66.80
12636;BME280;6383;50.830;7.210;2022-08-03T03:03:31;100780.59;;;21.14;67.29
12636;BME280;6383;50.830;7.210;2022-08-03T03:06:01;100778.53;;;21.11;67.16
12636;BME280;6383;50.830;7.210;2022-08-03T03:08:31;100778.47;;;21.07;67.19
12636;BME280;6383;50.830;7.210;2022-08-03T03:11:01;100785.56;;;21.05;67.70
12636;BME280;6383;50.830;7.210;2022-08-03T03:13:30;100780.38;;;21.03;67.96
12636;BME280;6383;50.830;7.210;2022-08-03T03:16:03;100779.94;;;21.01;67.67
12636;BME280;6383;50.830;7.210;2022-08-03T03:18:34;100782.28;;;20.99;67.60
12636;BME280;6383;50.830;7.210;2022-08-03T03:21:06;100785.41;;;20.98;68.02
12636;BME280;6383;50.830;7.210;2022-08-03T03:23:36;100779.44;;;20.96;68.28
12636;BME280;6383;50.830;7.210;2022-08-03T03:26:06;100786.13;;;20.95;68.36
12636;BME280;6383;50.830;7.210;2022-08-03T03:28:35;100784.91;;;20.92;68.07
12636;BME280;6383;50.830;7.210;2022-08-03T03:31:07;100784.91;;;20.92;68.52
12636;BME280;6383;50.830;7.210;2022-08-03T03:33:36;100791.97;;;20.90;68.20
12636;BME280;6383;50.830;7.210;2022-08-03T03:36:06;100784.03;;;20.88;68.19
12636;BME280;6383;50.830;7.210;2022-08-03T03:38:35;100784.03;;;20.88;68.61
12636;BME280;6383;50.830;7.210;2022-08-03T03:41:04;100785.56;;;20.86;67.71
12636;BME280;6383;50.830;7.210;2022-08-03T03:43:34;100787.53;;;20.85;67.52
12636;BME280;6383;50.830;7.210;2022-08-03T03:46:03;100785.13;;;20.84;67.95
12636;BME280;6383;50.830;7.210;2022-08-03T03:48:34;100779.94;;;20.82;68.24
12636;BME280;6383;50.830;7.210;2022-08-03T03:51:03;100787.81;;;20.80;68.10
12636;BME280;6383;50.830;7.210;2022-08-03T03:53:33;100784.25;;;20.80;67.78
12636;BME280;6383;50.830;7.210;2022-08-03T03:56:02;100785.41;;;20.78;67.83
12636;BME280;6383;50.830;7.210;2022-08-03T03:58:32;100783.81;;;20.77;67.79
12636;BME280;6383;50.830;7.210;2022-08-03T04:01:01;100781.78;;;20.74;67.99
12636;BME280;6383;50.830;7.210;2022-08-03T04:03:31;100779.38;;;20.73;67.46
12636;BME280;6383;50.830;7.210;2022-08-03T04:06:01;100788.47;;;20.73;67.80
12636;BME280;6383;50.830;7.210;2022-08-03T04:08:48;100782.06;;;20.69;68.16
12636;BME280;6383;50.830;7.210;2022-08-03T04:11:38;100787.94;;;20.68;67.65
12636;BME280;6383;50.830;7.210;2022-08-03T04:14:11;100785.19;;;20.68;68.17
12636;BME280;6383;50.830;7.210;2022-08-03T04:16:43;100786.13;;;21.33;66.38
12636;BME280;6383;50.830;7.210;2022-08-03T04:19:17;100779.94;;;21.01;66.65
12636;BME280;6383;50.830;7.210;2022-08-03T04:21:51;100775.38;;;20.90;67.21
12636;BME280;6383;50.830;7.210;2022-08-03T04:24:21;100779.22;;;20.85;67.58
12636;BME280;6383;50.830;7.210;2022-08-03T04:26:52;100789.41;;;20.81;68.00
12636;BME280;6383;50.830;7.210;2022-08-03T04:29:23;100782.22;;;20.76;67.83
12636;BME280;6383;50.830;7.210;2022-08-03T04:31:54;100786.94;;;20.76;67.80
12636;BME280;6383;50.830;7.210;2022-08-03T04:34:25;100782.13;;;20.73;68.48
12636;BME280;6383;50.830;7.210;2022-08-03T04:36:58;100793.22;;;20.73;68.31
12636;BME280;6383;50.830;7.210;2022-08-03T04:39:30;100798.66;;;20.69;68.61
12636;BME280;6383;50.830;7.210;2022-08-03T04:42:02;100799.00;;;20.68;68.91
12636;BME280;6383;50.830;7.210;2022-08-03T04:44:35;100801.41;;;20.69;69.15
12636;BME280;6383;50.830;7.210;2022-08-03T04:47:05;100798.66;;;20.69;68.93
12636;BME280;6383;50.830;7.210;2022-08-03T04:49:35;100800.63;;;20.69;69.73
12636;BME280;6383;50.830;7.210;2022-08-03T04:52:07;100797.06;;;20.68;69.27
12636;BME280;6383;50.830;7.210;2022-08-03T04:54:39;100801.41;;;20.69;69.23
12636;BME280;6383;50.830;7.210;2022-08-03T04:57:08;100803.81;;;20.71;69.51
12636;BME280;6383;50.830;7.210;2022-08-03T04:59:38;100803.38;;;20.69;70.03
12636;BME280;6383;50.830;7.210;2022-08-03T05:02:05;100802.22;;;20.70;70.04
12636;BME280;6383;50.830;7.210;2022-08-03T05:04:35;100795.53;;;20.71;69.54
12636;BME280;6383;50.830;7.210;2022-08-03T05:07:04;100809.00;;;20.72;69.77
12636;BME280;6383;50.830;7.210;2022-08-03T05:09:35;100808.63;;;20.74;69.13
12636;BME280;6383;50.830;7.210;2022-08-03T05:12:05;100813.38;;;20.73;68.88
12636;BME280;6383;50.830;7.210;2022-08-03T05:14:34;100810.25;;;20.75;69.33
12636;BME280;6383;50.830;7.210;2022-08-03T05:17:05;100808.63;;;20.74;69.37
12636;BME280;6383;50.830;7.210;2022-08-03T05:19:35;100807.47;;;20.75;69.79
12636;BME280;6383;50.830;7.210;2022-08-03T05:22:04;100807.47;;;20.75;69.47
12636;BME280;6383;50.830;7.210;2022-08-03T05:24:34;100816.56;;;20.75;69.28
12636;BME280;6383;50.830;7.210;2022-08-03T05:27:03;100819.78;;;20.77;69.96
12636;BME280;6383;50.830;7.210;2022-08-03T05:29:33;100817.03;;;20.77;69.75
12636;BME280;6383;50.830;7.210;2022-08-03T05:32:02;100808.72;;;20.77;69.47
12636;BME280;6383;50.830;7.210;2022-08-03T05:34:31;100811.50;;;20.77;69.66
12636;BME280;6383;50.830;7.210;2022-08-03T05:37:01;100815.47;;;20.80;70.43
12636;BME280;6383;50.830;7.210;2022-08-03T05:39:30;100806.81;;;20.82;69.93
12636;BME280;6383;50.830;7.210;2022-08-03T05:42:01;100808.41;;;20.83;70.01
12636;BME280;6383;50.830;7.210;2022-08-03T05:44:30;100801.72;;;20.84;69.54
12636;BME280;6383;50.830;7.210;2022-08-03T05:46:59;100808.06;;;20.84;69.51
12636;BME280;6383;50.830;7.210;2022-08-03T05:49:28;100806.09;;;20.85;69.16
12636;BME280;6383;50.830;7.210;2022-08-03T05:51:57;100806.16;;;20.88;69.91
12636;BME280;6383;50.830;7.210;2022-08-03T05:54:27;100808.22;;;20.91;69.58
12636;BME280;6383;50.830;7.210;2022-08-03T05:56:56;100809.44;;;20.94;69.76
12636;BME280;6383;50.830;7.210;2022-08-03T05:59:26;100814.69;;;20.99;70.26
12636;BME280;6383;50.830;7.210;2022-08-03T06:01:55;100812.78;;;21.03;69.96
12636;BME280;6383;50.830;7.210;2022-08-03T06:04:25;100812.47;;;21.08;70.10
12636;BME280;6383;50.830;7.210;2022-08-03T06:06:54;100809.78;;;21.11;70.17
12636;BME280;6383;50.830;7.210;2022-08-03T06:09:23;100819.34;;;21.14;69.91
12636;BME280;6383;50.830;7.210;2022-08-03T06:11:52;100812.28;;;21.17;69.94
12636;BME280;6383;50.830;7.210;2022-08-03T06:14:21;100823.44;;;21.20;69.79
12636;BME280;6383;50.830;7.210;2022-08-03T06:16:52;100816.00;;;21.24;69.68
12636;BME280;6383;50.830;7.210;2022-08-03T06:19:21;100818.84;;;21.28;69.82
12636;BME280;6383;50.830;7.210;2022-08-03T06:21:51;100814.97;;;21.32;69.66
12636;BME280;6383;50.830;7.210;2022-08-03T06:24:20;100826.16;;;21.39;68.98
12636;BME280;6383;50.830;7.210;2022-08-03T06:26:49;100821.50;;;21.43;69.47
12636;BME280;6383;50.830;7.210;2022-08-03T06:29:18;100824.00;;;21.49;69.32
12636;BME280;6383;50.830;7.210;2022-08-03T06:31:47;100826.44;;;21.54;69.16
12636;BME280;6383;50.830;7.210;2022-08-03T06:34:18;100824.97;;;21.60;69.35
12636;BME280;6383;50.830;7.210;2022-08-03T06:36:47;100821.91;;;21.65;69.78
12636;BME280;6383;50.830;7.210;2022-08-03T06:39:17;100825.97;;;21.71;69.67
12636;BME280;6383;50.830;7.210;2022-08-03T06:41:47;100828.06;;;21.77;69.97
12636;BME280;6383;50.830;7.210;2022-08-03T06:44:16;100817.44;;;21.83;69.60
12636;BME280;6383;50.830;7.210;2022-08-03T06:46:46;100821.53;;;21.89;69.22
12636;BME280;6383;50.830;7.210;2022-08-03T06:49:15;100816.47;;;21.95;68.72
12636;BME280;6383;50.830;7.210;2022-08-03T06:51:46;100826.91;;;22.01;67.93
12636;BME280;6383;50.830;7.210;2022-08-03T06:54:17;100827.41;;;22.07;68.17
12636;BME280;6383;50.830;7.210;2022-08-03T06:56:46;100820.34;;;22.13;68.13
12636;BME280;6383;50.830;7.210;2022-08-03T06:59:16;100830.38;;;22.21;68.18
12636;BME280;6383;50.830;7.210;2022-08-03T07:01:49;100819.75;;;22.27;67.24
12636;BME280;6383;50.830;7.210;2022-08-03T07:04:18;100829.38;;;22.33;67.86
12636;BME280;6383;50.830;7.210;2022-08-03T07:06:51;100814.03;;;22.39;66.73
12636;BME280;6383;50.830;7.210;2022-08-03T07:09:24;100826.00;;;22.46;67.22
12636;BME280;6383;50.830;7.210;2022-08-03T07:11:56;100820.16;;;22.51;67.14
12636;BME280;6383;50.830;7.210;2022-08-03T07:14:26;100824.97;;;22.58;66.18
12636;BME280;6383;50.830;7.210;2022-08-03T07:16:59;100819.09;;;22.63;65.33
12636;BME280;6383;50.830;7.210;2022-08-03T07:19:34;100830.31;;;22.70;65.67
12636;BME280;6383;50.830;7.210;2022-08-03T07:22:09;100832.41;;;22.77;66.56
12636;BME280;6383;50.830;7.210;2022-08-03T07:24:44;100823.75;;;22.82;65.29
12636;BME280;6383;50.830;7.210;2022-08-03T07:27:19;100820.25;;;22.89;65.57
12636;BME280;6383;50.830;7.210;2022-08-03T07:29:58;100823.50;;;22.94;65.21
12636;BME280;6383;50.830;7.210;2022-08-03T07:32:33;100828.75;;;22.99;64.55
12636;BME280;6383;50.830;7.210;2022-08-03T07:35:04;100833.97;;;23.08;64.99
12636;BME280;6383;50.830;7.210;2022-08-03T07:37:37;100831.31;;;23.15;64.95
12636;BME280;6383;50.830;7.210;2022-08-03T07:40:10;100836.13;;;23.21;64.96
12636;BME280;6383;50.830;7.210;2022-08-03T07:42:41;100828.25;;;23.27;63.58
12636;BME280;6383;50.830;7.210;2022-08-03T07:45:11;100830.72;;;23.36;63.48
12636;BME280;6383;50.830;7.210;2022-08-03T07:47:43;100826.84;;;23.44;63.13
12636;BME280;6383;50.830;7.210;2022-08-03T07:50:12;100822.19;;;23.51;63.35
12636;BME280;6383;50.830;7.210;2022-08-03T07:52:49;100820.69;;;23.58;63.44
12636;BME280;6383;50.830;7.210;2022-08-03T07:55:21;100829.47;;;23.67;62.58
12636;BME280;6383;50.830;7.210;2022-08-03T07:57:59;100825.19;;;23.73;62.20
12636;BME280;6383;50.830;7.210;2022-08-03T08:00:28;100818.50;;;23.81;62.45
12636;BME280;6383;50.830;7.210;2022-08-03T08:02:57;100816.59;;;23.88;62.30
12636;BME280;6383;50.830;7.210;2022-08-03T08:05:27;100821.00;;;23.97;62.21
12636;BME280;6383;50.830;7.210;2022-08-03T08:07:58;100819.88;;;24.05;62.27
12636;BME280;6383;50.830;7.210;2022-08-03T08:10:27;100813.56;;;24.11;61.81
12636;BME280;6383;50.830;7.210;2022-08-03T08:12:57;100822.00;;;24.18;61.90
12636;BME280;6383;50.830;7.210;2022-08-03T08:15:27;100812.09;;;24.24;61.58
12636;BME280;6383;50.830;7.210;2022-08-03T08:17:58;100810.19;;;24.32;61.30
12636;BME280;6383;50.830;7.210;2022-08-03T08:20:29;100809.41;;;24.39;61.06
12636;BME280;6383;50.830;7.210;2022-08-03T08:23:01;100803.50;;;24.44;61.70
12636;BME280;6383;50.830;7.210;2022-08-03T08:25:30;100806.31;;;24.51;61.44
12636;BME280;6383;50.830;7.210;2022-08-03T08:28:00;100803.16;;;24.56;60.73
12636;BME280;6383;50.830;7.210;2022-08-03T08:30:32;100804.78;;;24.64;61.70
12636;BME280;6383;50.830;7.210;2022-08-03T08:33:01;100804.84;;;24.71;60.79
12636;BME280;6383;50.830;7.210;2022-08-03T08:35:30;100804.06;;;24.78;59.94
12636;BME280;6383;50.830;7.210;2022-08-03T08:38:01;100806.06;;;24.84;59.88
12636;BME280;6383;50.830;7.210;2022-08-03T08:40:30;100811.66;;;24.88;58.66
12636;BME280;6383;50.830;7.210;2022-08-03T08:43:00;100802.56;;;24.94;58.81
12636;BME280;6383;50.830;7.210;2022-08-03T08:45:30;100810.97;;;25.02;58.92
12636;BME280;6383;50.830;7.210;2022-08-03T08:48:01;100802.22;;;25.10;58.73
12636;BME280;6383;50.830;7.210;2022-08-03T08:50:31;100804.66;;;25.22;59.16
12636;BME280;6383;50.830;7.210;2022-08-03T08:53:02;100805.06;;;25.32;57.78
12636;BME280;6383;50.830;7.210;2022-08-03T08:55:34;100806.66;;;25.40;57.37
12636;BME280;6383;50.830;7.210;2022-08-03T08:58:04;100803.50;;;25.55;57.78
12636;BME280;6383;50.830;7.210;2022-08-03T09:00:34;100802.38;;;25.67;55.96
12636;BME280;6383;50.830;7.210;2022-08-03T09:03:03;100802.78;;;25.76;55.02
12636;BME280;6383;50.830;7.210;2022-08-03T09:05:32;100801.59;;;25.81;54.37
12636;BME280;6383;50.830;7.210;2022-08-03T09:08:04;100799.97;;;25.87;54.64
12636;BME280;6383;50.830;7.210;2022-08-03T09:10:33;100798.00;;;25.91;55.43
12636;BME280;6383;50.830;7.210;2022-08-03T09:13:02;100796.41;;;25.97;54.77
12636;BME280;6383;50.830;7.210;2022-08-03T09:15:32;100793.59;;;26.00;53.37
12636;BME280;6383;50.830;7.210;2022-08-03T09:18:03;100806.75;;;26.04;53.34
12636;BME280;6383;50.830;7.210;2022-08-03T09:20:33;100798.38;;;26.07;51.86
12636;BME280;6383;50.830;7.210;2022-08-03T09:23:05;100801.97;;;26.11;51.66
12636;BME280;6383;50.830;7.210;2022-08-03T09:25:38;100789.59;;;26.16;52.76
12636;BME280;6383;50.830;7.210;2022-08-03T09:28:09;100789.19;;;26.21;52.42
12636;BME280;6383;50.830;7.210;2022-08-03T09:30:38;100794.38;;;26.26;52.09
12636;BME280;6383;50.830;7.210;2022-08-03T09:33:08;100792.38;;;26.33;52.24
12636;BME280;6383;50.830;7.210;2022-08-03T09:35:40;100786.81;;;26.41;52.08
12636;BME280;6383;50.830;7.210;2022-08-03T09:38:12;100783.56;;;26.49;51.42
12636;BME280;6383;50.830;7.210;2022-08-03T09:40:42;100783.13;;;26.58;51.27
12636;BME280;6383;50.830;7.210;2022-08-03T09:43:11;100778.34;;;26.65;51.44
12636;BME280;6383;50.830;7.210;2022-08-03T09:45:39;100783.06;;;26.72;51.01
12636;BME280;6383;50.830;7.210;2022-08-03T09:48:22;100789.44;;;26.76;51.28
12636;BME280;6383;50.830;7.210;2022-08-03T09:50:54;100775.06;;;26.85;50.90
12636;BME280;6383;50.830;7.210;2022-08-03T09:53:25;100774.22;;;26.91;50.49
12636;BME280;6383;50.830;7.210;2022-08-03T09:55:56;100785.00;;;27.00;50.45
12636;BME280;6383;50.830;7.210;2022-08-03T09:58:27;100778.97;;;27.09;50.33
12636;BME280;6383;50.830;7.210;2022-08-03T10:00:57;100781.28;;;27.17;49.08
12636;BME280;6383;50.830;7.210;2022-08-03T10:03:28;100774.47;;;27.25;49.05
12636;BME280;6383;50.830;7.210;2022-08-03T10:05:58;100778.41;;;27.31;48.71
12636;BME280;6383;50.830;7.210;2022-08-03T10:08:28;100779.19;;;27.35;48.98
12636;BME280;6383;50.830;7.210;2022-08-03T10:10:59;100779.56;;;27.37;48.77
12636;BME280;6383;50.830;7.210;2022-08-03T10:13:28;100772.34;;;27.44;48.63
12636;BME280;6383;50.830;7.210;2022-08-03T10:15:57;100765.91;;;27.50;47.50
12636;BME280;6383;50.830;7.210;2022-08-03T10:18:27;100765.47;;;27.55;46.56
12636;BME280;6383;50.830;7.210;2022-08-03T10:21:02;100762.69;;;27.59;47.22
12636;BME280;6383;50.830;7.210;2022-08-03T10:23:34;100760.63;;;27.63;46.93
12636;BME280;6383;50.830;7.210;2022-08-03T10:26:06;100762.22;;;27.67;46.37
12636;BME280;6383;50.830;7.210;2022-08-03T10:28:39;100764.97;;;27.75;46.66
12636;BME280;6383;50.830;7.210;2022-08-03T10:31:08;100764.09;;;27.81;46.20
12636;BME280;6383;50.830;7.210;2022-08-03T10:33:47;100755.28;;;27.83;46.51
12636;BME280;6383;50.830;7.210;2022-08-03T10:36:17;100750.03;;;27.88;45.49
12636;BME280;6383;50.830;7.210;2022-08-03T10:38:51;100761.19;;;27.92;44.79
12636;BME280;6383;50.830;7.210;2022-08-03T10:41:22;100748.78;;;27.93;45.84
12636;BME280;6383;50.830;7.210;2022-08-03T10:43:56;100739.56;;;27.96;44.97
12636;BME280;6383;50.830;7.210;2022-08-03T10:46:27;100744.34;;;27.99;44.52
12636;BME280;6383;50.830;7.210;2022-08-03T10:48:57;100736.31;;;28.01;45.60
12636;BME280;6383;50.830;7.210;2022-08-03T10:51:29;100732.72;;;28.04;45.43
12636;BME280;6383;50.830;7.210;2022-08-03T10:54:00;100733.03;;;28.09;44.69
12636;BME280;6383;50.830;7.210;2022-08-03T10:56:39;100737.00;;;28.12;45.08
12636;BME280;6383;50.830;7.210;2022-08-03T10:59:56;100729.81;;;28.11;45.97
12636;BME280;6383;50.830;7.210;2022-08-03T11:05:36;100718.44;;;28.32;44.29
12636;BME280;6383;50.830;7.210;2022-08-03T11:08:23;100717.56;;;28.35;44.74
12636;BME280;6383;50.830;7.210;2022-08-03T11:11:01;100713.88;;;28.46;44.03
12636;BME280;6383;50.830;7.210;2022-08-03T11:13:30;100712.56;;;28.54;43.62
12636;BME280;6383;50.830;7.210;2022-08-03T11:16:02;100709.66;;;28.61;43.60
12636;BME280;6383;50.830;7.210;2022-08-03T11:18:31;100709.59;;;28.64;43.26
12636;BME280;6383;50.830;7.210;2022-08-03T11:20:59;100702.38;;;28.67;43.04
12636;BME280;6383;50.830;7.210;2022-08-03T11:23:43;100703.59;;;28.66;42.96
12636;BME280;6383;50.830;7.210;2022-08-03T11:26:17;100709.53;;;28.71;43.76
12636;BME280;6383;50.830;7.210;2022-08-03T11:28:48;100701.06;;;28.75;43.22
12636;BME280;6383;50.830;7.210;2022-08-03T11:31:43;100697.84;;;28.76;43.28
12636;BME280;6383;50.830;7.210;2022-08-03T11:34:14;100703.34;;;28.87;42.89
12636;BME280;6383;50.830;7.210;2022-08-03T11:37:21;100703.66;;;28.93;42.91
12636;BME280;6383;50.830;7.210;2022-08-03T11:39:53;100703.53;;;29.00;42.73
12636;BME280;6383;50.830;7.210;2022-08-03T11:42:43;100708.72;;;29.01;43.10
12636;BME280;6383;50.830;7.210;2022-08-03T11:45:15;100707.84;;;29.08;42.81
12636;BME280;6383;50.830;7.210;2022-08-03T11:47:48;100704.91;;;29.15;42.79
12636;BME280;6383;50.830;7.210;2022-08-03T11:50:20;100702.06;;;29.19;41.95
12636;BME280;6383;50.830;7.210;2022-08-03T11:52:50;100695.53;;;29.25;41.38
12636;BME280;6383;50.830;7.210;2022-08-03T11:55:19;100692.63;;;29.32;42.13
12636;BME280;6383;50.830;7.210;2022-08-03T11:57:49;100686.13;;;29.39;42.41
12636;BME280;6383;50.830;7.210;2022-08-03T12:00:26;100694.06;;;29.44;41.70
12636;BME280;6383;50.830;7.210;2022-08-03T12:03:01;100694.81;;;29.48;41.88
12636;BME280;6383;50.830;7.210;2022-08-03T12:05:37;100691.16;;;29.51;41.55
12636;BME280;6383;50.830;7.210;2022-08-03T12:08:07;100683.41;;;29.59;40.57
12636;BME280;6383;50.830;7.210;2022-08-03T12:10:37;100682.84;;;29.67;41.14
12636;BME280;6383;50.830;7.210;2022-08-03T12:13:08;100682.34;;;29.72;40.50
12636;BME280;6383;50.830;7.210;2022-08-03T12:15:37;100680.28;;;29.76;40.37
12636;BME280;6383;50.830;7.210;2022-08-03T12:18:14;100685.81;;;29.80;40.21
12636;BME280;6383;50.830;7.210;2022-08-03T12:20:44;100677.78;;;29.82;40.27
12636;BME280;6383;50.830;7.210;2022-08-03T12:23:13;100677.31;;;29.83;39.33
12636;BME280;6383;50.830;7.210;2022-08-03T12:25:44;100682.09;;;29.87;40.13
12636;BME280;6383;50.830;7.210;2022-08-03T12:28:16;100680.00;;;29.91;40.50
12636;BME280;6383;50.830;7.210;2022-08-03T12:30:48;100681.13;;;29.97;39.68
12636;BME280;6383;50.830;7.210;2022-08-03T12:33:20;100682.19;;;30.03;39.15
12636;BME280;6383;50.830;7.210;2022-08-03T12:36:01;100678.59;;;30.02;39.99
12636;BME280;6383;50.830;7.210;2022-08-03T12:38:30;100678.97;;;30.04;38.54
12636;BME280;6383;50.830;7.210;2022-08-03T12:41:03;100679.34;;;30.06;38.53
12636;BME280;6383;50.830;7.210;2022-08-03T12:43:34;100671.72;;;30.07;39.86
12636;BME280;6383;50.830;7.210;2022-08-03T12:46:11;100670.91;;;30.06;39.02
12636;BME280;6383;50.830;7.210;2022-08-03T12:48:57;100666.09;;;30.07;39.11
12636;BME280;6383;50.830;7.210;2022-08-03T12:51:27;100666.72;;;30.14;39.89
12636;BME280;6383;50.830;7.210;2022-08-03T12:53:57;100666.66;;;30.18;39.10
12636;BME280;6383;50.830;7.210;2022-08-03T12:56:26;100677.47;;;30.20;37.76
12636;BME280;6383;50.830;7.210;2022-08-03T12:58:57;100668.63;;;30.21;38.24
12636;BME280;6383;50.830;7.210;2022-08-03T13:01:35;100667.47;;;30.19;38.57
12636;BME280;6383;50.830;7.210;2022-08-03T13:04:04;100665.00;;;30.21;39.49
12636;BME280;6383;50.830;7.210;2022-08-03T13:06:33;100656.16;;;30.22;38.75
12636;BME280;6383;50.830;7.210;2022-08-03T13:09:04;100671.78;;;30.23;38.98
12636;BME280;6383;50.830;7.210;2022-08-03T13:11:33;100665.38;;;30.23;38.42
12636;BME280;6383;50.830;7.210;2022-08-03T13:14:04;100661.34;;;30.24;39.62
12636;BME280;6383;50.830;7.210;2022-08-03T13:16:33;100656.53;;;30.24;38.17
12636;BME280;6383;50.830;7.210;2022-08-03T13:19:02;100650.81;;;30.28;38.84
12636;BME280;6383;50.830;7.210;2022-08-03T13:21:30;100648.38;;;30.30;38.39
12636;BME280;6383;50.830;7.210;2022-08-03T13:23:58;100649.53;;;30.32;38.28
12636;BME280;6383;50.830;7.210;2022-08-03T13:26:27;100645.84;;;30.35;37.36